PST: 05:30 MST: 06:30 CST: 07:30 EST: 08:30 LDN: 13:30 UTC: 13:30
User Agent: CCBot/2.0 (http://commoncrawl.org/faq/)
IP Address: 50.16.79.246
Hostname: ec2-50-16-79-246.compute-1.amazonaws.com

METAR:
KBFI 251253Z 15003KT 10SM FEW100 M01/M02 A3026 RMK AO2 SLP248 T10061017 $
KBFI 251153Z 00000KT 10SM FEW100 01/M02 A3027 RMK AO2 SLP249 T00061017 10056 20006 53003 $
KBFI 251053Z 00000KT 10SM FEW080 02/M02 A3026 RMK AO2 SLP247 T00171022 $
KBFI 250953Z 11005KT 10SM BKN080 03/M02 A3026 RMK AO2 SLP246 T00331022 $

TAF:
KBFI 251120Z 2512/2612 VRB03KT P6SM SCT070
FM 251800 19006KT P6SM BKN040
FM 260300 16008KT P6SM -RA SCT020 OVC030

KBFI 250524Z 2506/2606 VRB04KT P6SM BKN080
FM 250900 VRB03KT P6SM SCT070
FM 251800 19006KT P6SM BKN040
FM 260300 17008KT P6SM -RA SCT020 OVC030

KBFI 242320Z 2500/2524 VRB04KT P6SM SCT050
FM 250600 00000KT P6SM SCT050
FM 251800 VRB03KT P6SM BKN040

KBFI 241733Z 2418/2518 14006KT P6SM VCSH SCT015 BKN040
FM 242100 VRB04KT P6SM SCT020 BKN050
FM 250600 04006KT P6SM SCT060

KBFI 241120Z 2412/2512 16004KT P6SM SCT025 SCT070
FM 241400 15005KT P6SM VCSH SCT025 BKN035 OVC050
FM 241800 18006KT P6SM VCSH SCT030 BKN050
FM 242100 21006KT P6SM SCT045 BKN060
FM 250200 VRB03KT P6SM SCT060 SCT200